Tur — UVYQ — position and weather

sailwx.info

Track history (hours):
 
Tides and Currents Weather Stations Pressure Air Temp Water Temp Dewpoint Dewpoint Depression Visibility Wind Speed Wind Dir Waves Ship Positions

Tur

Last reported at 2016-Sep-30 22:32 UTC. Time now 2016-Sep-30 23:51 UTC.
Position N 46°51' E 031°58'.

Length 35 m.

Type: Tug. MMSI: 272064600.

Date/timePositionNaut miles runAvg speedWind from/ knotsBaromVisibWave heightAir tempDewpointWater temp
2016-Sep-30 22:32N 46°51' E 031°58'0 0.0
2016-Sep-30 20:32N 46°51' E 031°58'0 0.0
2016-Sep-30 17:32N 46°51' E 031°58'0 0.0
2016-Sep-30 16:33N 46°51' E 031°58'0 0.0
2016-Sep-30 14:33N 46°51' E 031°58'1 0.6
2016-Sep-30 13:33N 46°51' E 031°58'1 0.2
2016-Sep-30 10:33N 46°51' E 031°58'0 0.0
2016-Sep-30 08:33N 46°51' E 031°58'0 0.0
2016-Sep-30 06:33N 46°51' E 031°58'0 0.0
2016-Sep-30 03:33N 46°51' E 031°58'0 0.0
2016-Sep-30 02:33N 46°51' E 031°58'0 0.0
2016-Sep-29 23:33N 46°51' E 031°58'0 0.0
2016-Sep-29 21:33N 46°51' E 031°58'0 0.0
2016-Sep-29 20:33N 46°51' E 031°58'0 0.0
2016-Sep-29 19:33N 46°51' E 031°58'0 0.0
2016-Sep-29 16:33N 46°51' E 031°58'0 0.0
2016-Sep-29 15:33N 46°51' E 031°58'0 0.0
2016-Sep-29 14:33N 46°51' E 031°58'0 0.0
2016-Sep-29 13:33N 46°51' E 031°58'0 0.0
2016-Sep-29 08:33N 46°51' E 031°58'0 0.0
2016-Sep-29 07:33N 46°51' E 031°58'0 0.0
2016-Sep-29 00:33N 46°51' E 031°58'0 0.0
2016-Sep-28 21:33N 46°51' E 031°58'0 0.0
2016-Sep-28 19:33N 46°51' E 031°58'0 0.1
2016-Sep-28 16:33N 46°51' E 031°58'2 1.5
2016-Sep-28 15:29N 46°50' E 031°57'2 0.6
2016-Sep-28 12:31N 46°51' E 031°58'0 0.0
2016-Sep-28 08:31N 46°51' E 031°58'0 0.0
2016-Sep-28 03:33N 46°51' E 031°58'0 0.0
2016-Sep-28 02:33N 46°51' E 031°58'1 0.6
2016-Sep-28 01:33N 46°51' E 031°58'  
2016-Sep-24 09:29N 46°40' E 031°56'11 1.9
2016-Sep-24 03:33N 46°51' E 031°58'0 0.0
2016-Sep-24 02:33N 46°51' E 031°58'0 0.0
2016-Sep-24 01:34N 46°51' E 031°58'0 0.0
2016-Sep-24 00:33N 46°51' E 031°58'0 0.0
2016-Sep-23 19:31N 46°51' E 031°58'0 0.0
2016-Sep-23 17:34N 46°51' E 031°58'0 0.0
2016-Sep-23 16:31N 46°51' E 031°58'0 0.0
2016-Sep-23 15:31N 46°51' E 031°58'0 0.0
2016-Sep-23 13:31N 46°51' E 031°58'0 0.0
2016-Sep-23 09:31N 46°51' E 031°58'0 0.0
2016-Sep-23 06:31N 46°51' E 031°58'0 0.0
2016-Sep-23 04:31N 46°51' E 031°58'0 0.0
2016-Sep-23 03:31N 46°51' E 031°58'0 0.0
2016-Sep-23 02:31N 46°51' E 031°58'0 0.0
2016-Sep-23 01:31N 46°51' E 031°58'0 0.0
2016-Sep-23 00:31N 46°51' E 031°58'0 0.0
2016-Sep-22 23:31N 46°51' E 031°58'0 0.0
2016-Sep-22 20:31N 46°51' E 031°58'0 0.1
2016-Sep-22 12:29N 46°51' E 031°59'0 0.0
2016-Sep-22 04:30N 46°51' E 031°59'0 0.0
2016-Sep-22 03:33N 46°51' E 031°59'0 0.0
2016-Sep-22 00:33N 46°51' E 031°59'0 0.0
2016-Sep-21 23:33N 46°51' E 031°59'0 0.0
2016-Sep-21 22:33N 46°51' E 031°59'0 0.0
2016-Sep-21 19:30N 46°51' E 031°59'0 0.0
2016-Sep-21 16:33N 46°51' E 031°59'0 0.0
2016-Sep-21 09:30N 46°51' E 031°59'0 0.0
2016-Sep-21 08:30N 46°51' E 031°59'0 0.0
2016-Sep-21 05:33N 46°51' E 031°59'0 0.0
2016-Sep-21 03:33N 46°51' E 031°59'0 0.0
2016-Sep-21 02:33N 46°51' E 031°59'  
Track history (hours):
 
Tides and Currents Weather Stations Pressure Air Temp Water Temp Dewpoint Dewpoint Depression Visibility Wind Speed Wind Dir Waves Ship Positions

Tur

Last reported at 2016-Sep-30 22:32 UTC. Time now 2016-Sep-30 23:51 UTC.
Position N 46°51' E 031°58'.

Length 35 m.

Type: Tug. MMSI: 272064600.

Date/timePositionNaut miles runAvg speedWind from/ knotsBaromVisibWave heightAir tempDewpointWater temp
2016-Sep-30 22:32N 46°51' E 031°58'0 0.0
2016-Sep-30 20:32N 46°51' E 031°58'0 0.0
2016-Sep-30 17:32N 46°51' E 031°58'0 0.0
2016-Sep-30 16:33N 46°51' E 031°58'0 0.0
2016-Sep-30 14:33N 46°51' E 031°58'1 0.6
2016-Sep-30 13:33N 46°51' E 031°58'1 0.2
2016-Sep-30 10:33N 46°51' E 031°58'0 0.0
2016-Sep-30 08:33N 46°51' E 031°58'0 0.0
2016-Sep-30 06:33N 46°51' E 031°58'0 0.0
2016-Sep-30 03:33N 46°51' E 031°58'0 0.0
2016-Sep-30 02:33N 46°51' E 031°58'0 0.0
2016-Sep-29 23:33N 46°51' E 031°58'0 0.0
2016-Sep-29 21:33N 46°51' E 031°58'0 0.0
2016-Sep-29 20:33N 46°51' E 031°58'0 0.0
2016-Sep-29 19:33N 46°51' E 031°58'0 0.0
2016-Sep-29 16:33N 46°51' E 031°58'0 0.0
2016-Sep-29 15:33N 46°51' E 031°58'0 0.0
2016-Sep-29 14:33N 46°51' E 031°58'0 0.0
2016-Sep-29 13:33N 46°51' E 031°58'0 0.0
2016-Sep-29 08:33N 46°51' E 031°58'0 0.0
2016-Sep-29 07:33N 46°51' E 031°58'0 0.0
2016-Sep-29 00:33N 46°51' E 031°58'0 0.0
2016-Sep-28 21:33N 46°51' E 031°58'0 0.0
2016-Sep-28 19:33N 46°51' E 031°58'0 0.1
2016-Sep-28 16:33N 46°51' E 031°58'2 1.5
2016-Sep-28 15:29N 46°50' E 031°57'2 0.6
2016-Sep-28 12:31N 46°51' E 031°58'0 0.0
2016-Sep-28 08:31N 46°51' E 031°58'0 0.0
2016-Sep-28 03:33N 46°51' E 031°58'0 0.0
2016-Sep-28 02:33N 46°51' E 031°58'1 0.6
2016-Sep-28 01:33N 46°51' E 031°58'  
2016-Sep-24 09:29N 46°40' E 031°56'11 1.9
2016-Sep-24 03:33N 46°51' E 031°58'0 0.0
2016-Sep-24 02:33N 46°51' E 031°58'0 0.0
2016-Sep-24 01:34N 46°51' E 031°58'0 0.0
2016-Sep-24 00:33N 46°51' E 031°58'0 0.0
2016-Sep-23 19:31N 46°51' E 031°58'0 0.0
2016-Sep-23 17:34N 46°51' E 031°58'0 0.0
2016-Sep-23 16:31N 46°51' E 031°58'0 0.0
2016-Sep-23 15:31N 46°51' E 031°58'0 0.0
2016-Sep-23 13:31N 46°51' E 031°58'0 0.0
2016-Sep-23 09:31N 46°51' E 031°58'0 0.0
2016-Sep-23 06:31N 46°51' E 031°58'0 0.0
2016-Sep-23 04:31N 46°51' E 031°58'0 0.0
2016-Sep-23 03:31N 46°51' E 031°58'0 0.0
2016-Sep-23 02:31N 46°51' E 031°58'0 0.0
2016-Sep-23 01:31N 46°51' E 031°58'0 0.0
2016-Sep-23 00:31N 46°51' E 031°58'0 0.0
2016-Sep-22 23:31N 46°51' E 031°58'0 0.0
2016-Sep-22 20:31N 46°51' E 031°58'0 0.1
2016-Sep-22 12:29N 46°51' E 031°59'0 0.0
2016-Sep-22 04:30N 46°51' E 031°59'0 0.0
2016-Sep-22 03:33N 46°51' E 031°59'0 0.0
2016-Sep-22 00:33N 46°51' E 031°59'0 0.0
2016-Sep-21 23:33N 46°51' E 031°59'0 0.0
2016-Sep-21 22:33N 46°51' E 031°59'0 0.0
2016-Sep-21 19:30N 46°51' E 031°59'0 0.0
2016-Sep-21 16:33N 46°51' E 031°59'0 0.0
2016-Sep-21 09:30N 46°51' E 031°59'0 0.0
2016-Sep-21 08:30N 46°51' E 031°59'0 0.0
2016-Sep-21 05:33N 46°51' E 031°59'0 0.0
2016-Sep-21 03:33N 46°51' E 031°59'0 0.0
2016-Sep-21 02:33N 46°51' E 031°59'  

Dump ship's entire track history